Minerva Atlantica — ZCPR7 — position and weather

sailwx.info

Track history (hours):
 
Tides and Currents Weather Stations Pressure Air Temp Water Temp Dewpoint Dewpoint Depression Visibility Wind Speed Wind Dir Waves Ship Positions

Minerva Atlantica

Last reported at 2015-May-23 02:31 UTC. Time now 2015-May-24 15:19 UTC.
Position N 59°54' E 028°40'.

Length 250 m; draft 8 m.

Type: Tanker. MMSI: 319161000.

Date/timePositionNaut miles runAvg speedWind from/ knotsBaromVisibWave heightAir tempDewpointWater temp
2015-May-23 02:31N 59°54' E 028°40'0 0.1
2015-May-23 01:28N 59°54' E 028°40'39 1.1
2015-May-21 13:17N 60°04' E 027°25'810.4
2015-May-21 12:33N 60°00' E 027°12'10 9.9
2015-May-21 11:33N 59°59' E 026°52'1010.0
2015-May-21 10:34N 59°58' E 026°33'1110.1
2015-May-21 09:28N 59°55' E 026°12'4110.5
2015-May-21 05:33N 59°46' E 024°52'1110.7
2015-May-21 04:33N 59°44' E 024°31'1110.6
2015-May-21 03:33N 59°41' E 024°11'1110.6
2015-May-21 02:33N 59°38' E 023°51'1110.6
2015-May-21 01:33N 59°35' E 023°31'1110.4
2015-May-21 00:32N 59°31' E 023°11'1010.4
2015-May-20 23:33N 59°28' E 022°52'4210.5
2015-May-20 19:33N 59°05' E 021°44'20410.7
2015-May-20 00:28N 56°27' E 017°41'8610.9
2015-May-19 16:33N 55°40' E 015°32'1111.0
2015-May-19 15:33N 55°35' E 015°14'1111.0
2015-May-19 14:33N 55°30' E 014°57'1111.1
2015-May-19 13:33N 55°24' E 014°40'1110.8
2015-May-19 12:33N 55°16' E 014°28'1110.8
2015-May-19 11:33N 55°07' E 014°17'1110.6
2015-May-19 10:33N 55°00' E 014°03'1110.8
2015-May-19 09:33N 54°56' E 013°46'3410.9
2015-May-19 06:24N 54°46' E 012°49'1011.0
2015-May-19 05:31N 54°40' E 012°35'1111.3
2015-May-19 04:33N 54°33' E 012°20'1010.1
2015-May-19 03:33N 54°25' E 012°10'1111.4
2015-May-19 02:33N 54°25' E 011°50'1211.5
2015-May-19 01:33N 54°29' E 011°32'1211.8
2015-May-19 00:33N 54°34' E 011°14'1111.1
2015-May-18 23:33N 54°40' E 010°57'  
2015-May-16 03:22N 55°43' E 010°58'0 0.0
2015-May-15 04:31N 55°43' E 010°58'  
Track history (hours):
 
Tides and Currents Weather Stations Pressure Air Temp Water Temp Dewpoint Dewpoint Depression Visibility Wind Speed Wind Dir Waves Ship Positions

Minerva Atlantica

Last reported at 2015-May-23 02:31 UTC. Time now 2015-May-24 15:19 UTC.
Position N 59°54' E 028°40'.

Length 250 m; draft 8 m.

Type: Tanker. MMSI: 319161000.

Date/timePositionNaut miles runAvg speedWind from/ knotsBaromVisibWave heightAir tempDewpointWater temp
2015-May-23 02:31N 59°54' E 028°40'0 0.1
2015-May-23 01:28N 59°54' E 028°40'39 1.1
2015-May-21 13:17N 60°04' E 027°25'810.4
2015-May-21 12:33N 60°00' E 027°12'10 9.9
2015-May-21 11:33N 59°59' E 026°52'1010.0
2015-May-21 10:34N 59°58' E 026°33'1110.1
2015-May-21 09:28N 59°55' E 026°12'4110.5
2015-May-21 05:33N 59°46' E 024°52'1110.7
2015-May-21 04:33N 59°44' E 024°31'1110.6
2015-May-21 03:33N 59°41' E 024°11'1110.6
2015-May-21 02:33N 59°38' E 023°51'1110.6
2015-May-21 01:33N 59°35' E 023°31'1110.4
2015-May-21 00:32N 59°31' E 023°11'1010.4
2015-May-20 23:33N 59°28' E 022°52'4210.5
2015-May-20 19:33N 59°05' E 021°44'20410.7
2015-May-20 00:28N 56°27' E 017°41'8610.9
2015-May-19 16:33N 55°40' E 015°32'1111.0
2015-May-19 15:33N 55°35' E 015°14'1111.0
2015-May-19 14:33N 55°30' E 014°57'1111.1
2015-May-19 13:33N 55°24' E 014°40'1110.8
2015-May-19 12:33N 55°16' E 014°28'1110.8
2015-May-19 11:33N 55°07' E 014°17'1110.6
2015-May-19 10:33N 55°00' E 014°03'1110.8
2015-May-19 09:33N 54°56' E 013°46'3410.9
2015-May-19 06:24N 54°46' E 012°49'1011.0
2015-May-19 05:31N 54°40' E 012°35'1111.3
2015-May-19 04:33N 54°33' E 012°20'1010.1
2015-May-19 03:33N 54°25' E 012°10'1111.4
2015-May-19 02:33N 54°25' E 011°50'1211.5
2015-May-19 01:33N 54°29' E 011°32'1211.8
2015-May-19 00:33N 54°34' E 011°14'1111.1
2015-May-18 23:33N 54°40' E 010°57'  
2015-May-16 03:22N 55°43' E 010°58'0 0.0
2015-May-15 04:31N 55°43' E 010°58'  

Dump ship's entire track history